Wetterdaten: Woche 08.08.05 - 14.08.05 (KW32)
Datum Zeit Temperatur Luftfeuchte Luftdruck Niederschlag Wind Richtung Sonne Solar Taupunkt Windchill
08.08.2005 00:00 9.3 C 100 % 1017.3 hPa 0.3 l/m 0.4 km/h (0 Bft) O-SO 0.00 h 0 W/m 9.3 C 9.3 C
08.08.2005 01:00 9.6 C 100 % 1017.2 hPa 0.0 l/m 0.0 km/h (0 Bft) N 0.00 h 0 W/m 9.6 C 9.6 C
08.08.2005 02:00 9.6 C 100 % 1017.2 hPa 0.0 l/m 0.0 km/h (0 Bft) N 0.00 h 0 W/m 9.6 C 9.6 C
08.08.2005 03:00 9.0 C 100 % 1017.3 hPa 0.0 l/m 0.5 km/h (0 Bft) O-SO 0.00 h 0 W/m 9.0 C 9.0 C
08.08.2005 04:00 9.9 C 99 % 1017.2 hPa 0.0 l/m 2.5 km/h (1 Bft) W-NW 0.00 h 0 W/m 9.7 C 9.6 C
08.08.2005 05:00 9.9 C 99 % 1017.2 hPa 0.0 l/m 0.3 km/h (0 Bft) W-NW 0.00 h 0 W/m 9.8 C 9.9 C
08.08.2005 06:00 9.7 C 99 % 1017.2 hPa 0.0 l/m 2.1 km/h (1 Bft) W-NW 0.00 h 8 W/m 9.6 C 9.5 C
08.08.2005 07:00 9.6 C 98 % 1018.3 hPa 0.0 l/m 1.7 km/h (1 Bft) NW 0.00 h 39 W/m 9.3 C 9.5 C
08.08.2005 08:00 10.0 C 98 % 1018.2 hPa 0.0 l/m 1.1 km/h (0 Bft) NW 0.00 h 107 W/m 9.7 C 9.9 C
08.08.2005 09:00 11.3 C 95 % 1018.0 hPa 0.0 l/m 1.0 km/h (0 Bft) SO 0.23 h 249 W/m 10.5 C 11.3 C
08.08.2005 10:00 13.1 C 88 % 1017.8 hPa 0.0 l/m 0.6 km/h (0 Bft) N-NO 0.77 h 536 W/m 11.1 C 13.1 C
08.08.2005 11:00 15.4 C 69 % 1017.5 hPa 0.0 l/m 7.2 km/h (2 Bft) W-NW 1.00 h 753 W/m 9.5 C 15.4 C
08.08.2005 12:00 17.4 C 49 % 1017.2 hPa 0.0 l/m 12.9 km/h (3 Bft) W-NW 0.73 h 719 W/m 6.6 C 17.4 C
08.08.2005 13:00 18.2 C 43 % 1017.1 hPa 0.0 l/m 16.3 km/h (3 Bft) W-NW 0.83 h 766 W/m 5.4 C 18.2 C
08.08.2005 14:00 19.5 C 39 % 1016.9 hPa 0.0 l/m 17.2 km/h (3 Bft) W-NW 0.97 h 856 W/m 5.0 C 19.5 C
08.08.2005 15:00 20.9 C 35 % 1016.7 hPa 0.0 l/m 11.5 km/h (2 Bft) W-NW 1.00 h 808 W/m 4.8 C 20.9 C
08.08.2005 16:00 21.8 C 33 % 1015.6 hPa 0.0 l/m 10.1 km/h (2 Bft) NW 1.00 h 702 W/m 4.8 C 21.8 C
08.08.2005 17:00 21.7 C 34 % 1015.6 hPa 0.0 l/m 13.3 km/h (3 Bft) W-NW 1.00 h 531 W/m 5.2 C 21.7 C
08.08.2005 18:00 20.7 C 36 % 1015.8 hPa 0.0 l/m 13.2 km/h (3 Bft) W-NW 1.00 h 388 W/m 5.1 C 20.7 C
08.08.2005 19:00 19.4 C 41 % 1015.9 hPa 0.0 l/m 11.8 km/h (2 Bft) W-NW 1.00 h 229 W/m 5.7 C 19.4 C
08.08.2005 20:00 17.1 C 49 % 1016.2 hPa 0.0 l/m 4.5 km/h (1 Bft) W-NW 0.70 h 70 W/m 6.4 C 17.1 C
08.08.2005 21:00 14.1 C 64 % 1017.4 hPa 0.0 l/m 3.5 km/h (1 Bft) O-SO 0.00 h 0 W/m 7.4 C 14.1 C
08.08.2005 22:00 12.0 C 76 % 1017.9 hPa 0.0 l/m 2.5 km/h (1 Bft) O 0.00 h 0 W/m 7.8 C 12.0 C
08.08.2005 23:00 10.8 C 85 % 1018.1 hPa 0.0 l/m 0.0 km/h (0 Bft) N 0.00 h 0 W/m 8.4 C 10.8 C
09.08.2005 00:00 10.0 C 90 % 1018.2 hPa 0.0 l/m 0.4 km/h (0 Bft) O 0.00 h 0 W/m 8.5 C 10.0 C
09.08.2005 01:00 9.4 C 95 % 1018.3 hPa 0.0 l/m 0.1 km/h (0 Bft) O 0.00 h 0 W/m 8.6 C 9.4 C
09.08.2005 02:00 9.1 C 97 % 1018.3 hPa 0.0 l/m 0.1 km/h (0 Bft) O 0.00 h 0 W/m 8.7 C 9.1 C
09.08.2005 03:00 8.0 C 98 % 1018.5 hPa 0.0 l/m 0.0 km/h (0 Bft) N 0.00 h 0 W/m 7.6 C 8.0 C
09.08.2005 04:00 7.3 C 99 % 1018.5 hPa 0.0 l/m 0.0 km/h (0 Bft) N 0.00 h 0 W/m 7.1 C 7.3 C
09.08.2005 05:00 6.9 C 100 % 1017.9 hPa 0.0 l/m 0.2 km/h (0 Bft) O 0.00 h 0 W/m 6.9 C 6.9 C
09.08.2005 06:00 6.5 C 100 % 1017.8 hPa 0.0 l/m 0.0 km/h (0 Bft) N 0.07 h 22 W/m 6.5 C 6.5 C
09.08.2005 07:00 7.6 C 98 % 1018.5 hPa 0.0 l/m 0.0 km/h (0 Bft) N 0.82 h 176 W/m 7.3 C 7.6 C
09.08.2005 08:00 9.9 C 86 % 1018.2 hPa 0.0 l/m 0.0 km/h (0 Bft) N 1.00 h 350 W/m 7.6 C 9.9 C
09.08.2005 09:00 12.2 C 76 % 1017.6 hPa 0.0 l/m 0.4 km/h (0 Bft) W-NW 1.00 h 498 W/m 8.0 C 12.2 C
09.08.2005 10:00 15.1 C 64 % 1016.5 hPa 0.0 l/m 3.6 km/h (1 Bft) W-NW 1.00 h 624 W/m 8.3 C 15.1 C
09.08.2005 11:00 17.5 C 53 % 1016.2 hPa 0.0 l/m 4.3 km/h (1 Bft) W-NW 1.00 h 723 W/m 7.6 C 17.5 C
09.08.2005 12:00 19.0 C 40 % 1015.9 hPa 0.0 l/m 4.4 km/h (1 Bft) W-NW 1.00 h 793 W/m 5.1 C 19.0 C
09.08.2005 13:00 20.6 C 34 % 1014.7 hPa 0.0 l/m 2.4 km/h (1 Bft) W-NW 1.00 h 807 W/m 4.1 C 20.6 C
09.08.2005 14:00 22.1 C 36 % 1014.2 hPa 0.0 l/m 4.4 km/h (1 Bft) W-NW 1.00 h 790 W/m 6.3 C 22.1 C
09.08.2005 15:00 23.2 C 33 % 1013.4 hPa 0.0 l/m 7.2 km/h (2 Bft) NW 1.00 h 726 W/m 6.0 C 23.2 C
09.08.2005 16:00 24.2 C 29 % 1013.2 hPa 0.0 l/m 6.2 km/h (2 Bft) W-NW 1.00 h 621 W/m 4.8 C 24.2 C
09.08.2005 17:00 24.6 C 26 % 1012.2 hPa 0.0 l/m 10.5 km/h (2 Bft) W-NW 1.00 h 507 W/m 3.7 C 24.6 C
09.08.2005 18:00 23.3 C 31 % 1012.3 hPa 0.0 l/m 10.6 km/h (2 Bft) W-NW 1.00 h 386 W/m 5.1 C 23.3 C
09.08.2005 19:00 21.7 C 33 % 1012.5 hPa 0.0 l/m 4.4 km/h (1 Bft) W-NW 1.00 h 233 W/m 4.8 C 21.7 C
09.08.2005 20:00 19.2 C 41 % 1012.8 hPa 0.0 l/m 1.0 km/h (0 Bft) W 0.67 h 74 W/m 5.7 C 19.2 C
09.08.2005 21:00 15.7 C 59 % 1013.3 hPa 0.0 l/m 3.7 km/h (1 Bft) O-SO 0.00 h 0 W/m 7.8 C 15.7 C
09.08.2005 22:00 13.8 C 66 % 1013.5 hPa 0.0 l/m 0.8 km/h (0 Bft) O-SO 0.00 h 0 W/m 7.6 C 13.8 C
09.08.2005 23:00 12.3 C 75 % 1013.7 hPa 0.0 l/m 5.6 km/h (1 Bft) O-SO 0.00 h 0 W/m 8.0 C 12.3 C
10.08.2005 00:00 11.4 C 81 % 1014.2 hPa 0.0 l/m 1.1 km/h (1 Bft) O-SO 0.00 h 0 W/m 8.3 C 11.4 C
10.08.2005 01:00 10.7 C 88 % 1015.0 hPa 0.0 l/m 0.0 km/h (0 Bft) N 0.00 h 0 W/m 8.9 C 10.7 C
10.08.2005 02:00 10.1 C 91 % 1015.1 hPa 0.0 l/m 0.8 km/h (0 Bft) O-SO 0.00 h 0 W/m 8.7 C 10.1 C
10.08.2005 03:00 9.9 C 94 % 1015.0 hPa 0.0 l/m 0.1 km/h (0 Bft) O-SO 0.00 h 0 W/m 8.9 C 9.9 C
10.08.2005 04:00 9.3 C 97 % 1015.2 hPa 0.0 l/m 3.0 km/h (1 Bft) O-SO 0.00 h 0 W/m 8.9 C 9.1 C
10.08.2005 05:00 9.0 C 99 % 1015.2 hPa 0.0 l/m 1.1 km/h (0 Bft) O-SO 0.00 h 0 W/m 8.8 C 8.9 C
10.08.2005 06:00 8.7 C 100 % 1014.7 hPa 0.0 l/m 0.0 km/h (0 Bft) N 0.03 h 22 W/m 8.7 C 8.7 C
10.08.2005 07:00 10.1 C 97 % 1014.9 hPa 0.0 l/m 0.0 km/h (0 Bft) N 0.83 h 152 W/m 9.6 C 10.1 C
10.08.2005 08:00 12.1 C 84 % 1014.8 hPa 0.0 l/m 0.0 km/h (0 Bft) N 1.00 h 335 W/m 9.5 C 12.1 C
10.08.2005 09:00 14.3 C 74 % 1014.5 hPa 0.0 l/m 0.8 km/h (0 Bft) O 1.00 h 476 W/m 9.7 C 14.3 C
10.08.2005 10:00 16.8 C 64 % 1014.2 hPa 0.0 l/m 1.8 km/h (1 Bft) W-NW 1.00 h 619 W/m 9.9 C 16.8 C
10.08.2005 11:00 19.4 C 55 % 1013.8 hPa 0.0 l/m 2.7 km/h (1 Bft) W-NW 1.00 h 717 W/m 10.2 C 19.4 C
10.08.2005 12:00 21.6 C 41 % 1013.1 hPa 0.0 l/m 6.9 km/h (2 Bft) W-NW 1.00 h 791 W/m 7.2 C 21.6 C
10.08.2005 13:00 23.1 C 21 % 1012.3 hPa 0.0 l/m 11.7 km/h (2 Bft) W-NW 1.00 h 811 W/m -0.5 C 23.1 C
10.08.2005 14:00 24.1 C 29 % 1012.2 hPa 0.0 l/m 12.9 km/h (3 Bft) W-NW 1.00 h 788 W/m 5.0 C 24.1 C
10.08.2005 15:00 24.9 C 32 % 1012.1 hPa 0.0 l/m 16.7 km/h (3 Bft) W-NW 1.00 h 731 W/m 6.9 C 24.9 C
10.08.2005 16:00 25.7 C 32 % 1011.7 hPa 0.0 l/m 17.9 km/h (3 Bft) W-NW 1.00 h 640 W/m 7.9 C 25.7 C
10.08.2005 17:00 25.8 C 33 % 1011.0 hPa 0.0 l/m 15.3 km/h (3 Bft) W-NW 1.00 h 518 W/m 8.5 C 25.8 C
10.08.2005 18:00 25.2 C 37 % 1011.0 hPa 0.0 l/m 10.2 km/h (2 Bft) W-NW 1.00 h 372 W/m 9.3 C 25.2 C
10.08.2005 19:00 23.9 C 39 % 1011.2 hPa 0.0 l/m 11.8 km/h (2 Bft) W-NW 1.00 h 215 W/m 9.1 C 23.9 C
10.08.2005 20:00 21.5 C 46 % 1012.5 hPa 0.0 l/m 4.8 km/h (1 Bft) W-NW 0.63 h 53 W/m 9.5 C 21.5 C
10.08.2005 21:00 18.9 C 56 % 1012.9 hPa 0.0 l/m 0.0 km/h (0 Bft) N 0.00 h 0 W/m 10.0 C 18.9 C
10.08.2005 22:00 16.8 C 66 % 1014.1 hPa 0.0 l/m 0.7 km/h (0 Bft) O-SO 0.00 h 0 W/m 10.5 C 16.8 C
10.08.2005 23:00 14.9 C 78 % 1014.4 hPa 0.0 l/m 1.3 km/h (1 Bft) O-SO 0.00 h 0 W/m 11.0 C 14.9 C
11.08.2005 00:00 13.8 C 83 % 1014.6 hPa 0.0 l/m 0.7 km/h (0 Bft) O-SO 0.00 h 0 W/m 10.9 C 13.8 C
11.08.2005 01:00 13.0 C 88 % 1014.7 hPa 0.0 l/m 0.0 km/h (0 Bft) N 0.00 h 0 W/m 11.0 C 13.0 C
11.08.2005 02:00 12.0 C 93 % 1014.8 hPa 0.0 l/m 0.0 km/h (0 Bft) N 0.00 h 0 W/m 10.9 C 12.0 C
11.08.2005 03:00 11.3 C 95 % 1014.6 hPa 0.0 l/m 0.6 km/h (0 Bft) O-SO 0.00 h 0 W/m 10.6 C 11.3 C
11.08.2005 04:00 10.7 C 97 % 1014.3 hPa 0.0 l/m 0.4 km/h (0 Bft) O-SO 0.00 h 0 W/m 10.3 C 10.7 C
11.08.2005 05:00 10.3 C 99 % 1014.0 hPa 0.0 l/m 0.3 km/h (0 Bft) O-SO 0.00 h 0 W/m 10.1 C 10.3 C
11.08.2005 06:00 9.9 C 100 % 1014.8 hPa 0.0 l/m 2.6 km/h (1 Bft) O-SO 0.07 h 23 W/m 9.8 C 9.8 C
11.08.2005 07:00 11.4 C 97 % 1014.9 hPa 0.0 l/m 0.0 km/h (0 Bft) O-SO 0.80 h 139 W/m 10.9 C 11.4 C
11.08.2005 08:00 13.3 C 82 % 1014.6 hPa 0.0 l/m 0.5 km/h (0 Bft) O-SO 1.00 h 318 W/m 10.3 C 13.3 C
11.08.2005 09:00 15.2 C 72 % 1014.4 hPa 0.0 l/m 1.6 km/h (1 Bft) W-NW 1.00 h 478 W/m 10.2 C 15.2 C
11.08.2005 10:00 17.5 C 63 % 1014.1 hPa 0.0 l/m 2.3 km/h (1 Bft) W-NW 1.00 h 613 W/m 10.4 C 17.5 C
11.08.2005 11:00 19.8 C 54 % 1013.8 hPa 0.0 l/m 1.9 km/h (1 Bft) W-NW 1.00 h 728 W/m 10.3 C 19.8 C
11.08.2005 12:00 21.3 C 47 % 1013.3 hPa 0.0 l/m 3.8 km/h (1 Bft) NW 1.00 h 811 W/m 9.6 C 21.3 C
11.08.2005 13:00 22.6 C 43 % 1013.0 hPa 0.0 l/m 2.8 km/h (1 Bft) W 1.00 h 816 W/m 9.5 C 22.6 C
11.08.2005 14:00 23.7 C 38 % 1012.3 hPa 0.0 l/m 7.1 km/h (2 Bft) W-NW 1.00 h 773 W/m 8.6 C 23.7 C
11.08.2005 15:00 24.6 C 37 % 1012.2 hPa 0.0 l/m 10.4 km/h (2 Bft) W-NW 1.00 h 707 W/m 8.7 C 24.6 C
11.08.2005 16:00 24.9 C 35 % 1012.1 hPa 0.0 l/m 16.1 km/h (3 Bft) W-NW 1.00 h 611 W/m 8.4 C 24.9 C
11.08.2005 17:00 24.5 C 33 % 1012.2 hPa 0.0 l/m 18.0 km/h (3 Bft) W-NW 0.93 h 432 W/m 7.1 C 24.5 C
11.08.2005 18:00 23.2 C 35 % 1012.5 hPa 0.0 l/m 15.2 km/h (3 Bft) W-NW 0.83 h 250 W/m 6.9 C 23.2 C
11.08.2005 19:00 21.5 C 40 % 1013.1 hPa 0.0 l/m 12.3 km/h (3 Bft) W-NW 0.17 h 85 W/m 7.3 C 21.5 C
11.08.2005 20:00 20.4 C 45 % 1013.7 hPa 0.0 l/m 3.8 km/h (1 Bft) W-NW 0.62 h 50 W/m 7.9 C 20.4 C
11.08.2005 21:00 17.8 C 55 % 1014.5 hPa 0.0 l/m 0.7 km/h (0 Bft) O 0.00 h 0 W/m 8.5 C 17.8 C
11.08.2005 22:00 16.1 C 64 % 1015.3 hPa 0.0 l/m 2.3 km/h (1 Bft) O 0.00 h 0 W/m 9.4 C 16.1 C
11.08.2005 23:00 14.3 C 73 % 1015.7 hPa 0.0 l/m 4.2 km/h (1 Bft) O-SO 0.00 h 0 W/m 9.6 C 14.3 C
12.08.2005 00:00 12.9 C 82 % 1016.4 hPa 0.0 l/m 1.9 km/h (1 Bft) O-SO 0.00 h 0 W/m 9.9 C 12.9 C
12.08.2005 01:00 12.2 C 87 % 1016.9 hPa 0.0 l/m 1.5 km/h (1 Bft) O-SO 0.00 h 0 W/m 10.1 C 12.2 C
12.08.2005 02:00 11.3 C 91 % 1016.5 hPa 0.0 l/m 0.1 km/h (0 Bft) N 0.00 h 0 W/m 9.8 C 11.3 C
12.08.2005 03:00 10.6 C 94 % 1016.9 hPa 0.0 l/m 1.7 km/h (1 Bft) O-SO 0.00 h 0 W/m 9.7 C 10.6 C
12.08.2005 04:00 10.1 C 96 % 1017.0 hPa 0.0 l/m 3.5 km/h (1 Bft) O-SO 0.00 h 0 W/m 9.5 C 9.9 C
12.08.2005 05:00 9.4 C 98 % 1017.2 hPa 0.0 l/m 2.4 km/h (1 Bft) O 0.00 h 0 W/m 9.2 C 9.3 C
12.08.2005 06:00 9.4 C 100 % 1017.3 hPa 0.0 l/m 1.2 km/h (1 Bft) O 0.07 h 22 W/m 9.3 C 9.3 C
12.08.2005 07:00 10.5 C 97 % 1017.1 hPa 0.0 l/m 0.3 km/h (0 Bft) O 0.80 h 149 W/m 10.1 C 10.5 C
12.08.2005 08:00 12.8 C 85 % 1016.8 hPa 0.0 l/m 3.1 km/h (1 Bft) O-SO 1.00 h 326 W/m 10.3 C 12.8 C
12.08.2005 09:00 15.0 C 75 % 1016.5 hPa 0.0 l/m 3.6 km/h (1 Bft) O-SO 1.00 h 476 W/m 10.5 C 15.0 C
12.08.2005 10:00 17.6 C 64 % 1016.0 hPa 0.0 l/m 6.8 km/h (2 Bft) O-SO 1.00 h 603 W/m 10.7 C 17.6 C
12.08.2005 11:00 20.1 C 56 % 1014.8 hPa 0.0 l/m 8.9 km/h (2 Bft) O-SO 1.00 h 704 W/m 11.0 C 20.1 C
12.08.2005 12:00 22.2 C 49 % 1014.5 hPa 0.0 l/m 6.8 km/h (2 Bft) SO 1.00 h 768 W/m 11.0 C 22.2 C
12.08.2005 13:00 23.6 C 42 % 1013.8 hPa 0.0 l/m 5.9 km/h (2 Bft) NW 1.00 h 793 W/m 9.7 C 23.6 C
12.08.2005 14:00 25.0 C 35 % 1013.1 hPa 0.0 l/m 8.8 km/h (2 Bft) W-NW 1.00 h 784 W/m 8.6 C 25.0 C
12.08.2005 15:00 26.0 C 34 % 1012.8 hPa 0.0 l/m 13.3 km/h (3 Bft) W-NW 1.00 h 721 W/m 8.8 C 26.0 C
12.08.2005 16:00 27.0 C 32 % 1011.9 hPa 0.0 l/m 16.1 km/h (3 Bft) W-NW 1.00 h 637 W/m 8.8 C 27.0 C
12.08.2005 17:00 26.9 C 34 % 1011.9 hPa 0.0 l/m 15.5 km/h (3 Bft) W-NW 0.70 h 425 W/m 9.5 C 26.9 C
12.08.2005 18:00 25.4 C 37 % 1012.1 hPa 0.0 l/m 13.2 km/h (3 Bft) W-NW 0.37 h 185 W/m 9.7 C 25.4 C
12.08.2005 19:00 24.3 C 39 % 1012.2 hPa 0.0 l/m 16.9 km/h (3 Bft) W-NW 0.00 h 44 W/m 9.5 C 24.3 C
12.08.2005 20:00 22.7 C 46 % 1013.0 hPa 0.0 l/m 18.9 km/h (3 Bft) W-NW 0.00 h 10 W/m 10.5 C 22.7 C
12.08.2005 21:00 21.7 C 52 % 1013.6 hPa 0.0 l/m 20.3 km/h (4 Bft) W-NW 0.00 h 0 W/m 11.3 C 21.7 C
12.08.2005 22:00 21.1 C 55 % 1014.5 hPa 0.0 l/m 20.8 km/h (4 Bft) NW 0.00 h 0 W/m 11.6 C 21.1 C
12.08.2005 23:00 19.7 C 56 % 1015.3 hPa 0.3 l/m 7.2 km/h (2 Bft) W-NW 0.00 h 0 W/m 10.7 C 19.7 C
13.08.2005 00:00 16.3 C 84 % 1016.3 hPa 0.0 l/m 3.1 km/h (1 Bft) O-SO 0.00 h 0 W/m 13.6 C 16.3 C
13.08.2005 01:00 15.8 C 91 % 1016.4 hPa 0.0 l/m 0.5 km/h (0 Bft) SO 0.00 h 0 W/m 14.3 C 15.8 C
13.08.2005 02:00 15.6 C 93 % 1016.5 hPa 0.0 l/m 0.6 km/h (0 Bft) SO 0.00 h 0 W/m 14.4 C 15.6 C
13.08.2005 03:00 15.1 C 95 % 1016.9 hPa 0.0 l/m 2.1 km/h (1 Bft) O-SO 0.00 h 0 W/m 14.3 C 15.1 C
13.08.2005 04:00 15.2 C 96 % 1017.4 hPa 0.0 l/m 1.1 km/h (1 Bft) O-SO 0.00 h 0 W/m 14.6 C 15.2 C
13.08.2005 05:00 15.0 C 97 % 1017.5 hPa 0.0 l/m 0.1 km/h (0 Bft) N 0.00 h 0 W/m 14.5 C 15.0 C
13.08.2005 06:00 15.3 C 95 % 1018.0 hPa 0.0 l/m 0.0 km/h (0 Bft) N 0.00 h 10 W/m 14.6 C 15.3 C
13.08.2005 07:00 15.5 C 89 % 1018.5 hPa 0.0 l/m 0.2 km/h (0 Bft) NW 0.00 h 53 W/m 13.8 C 15.5 C
13.08.2005 08:00 15.9 C 86 % 1019.1 hPa 0.0 l/m 1.6 km/h (1 Bft) W-NW 0.12 h 146 W/m 13.6 C 15.9 C
13.08.2005 09:00 17.0 C 80 % 1019.3 hPa 0.0 l/m 0.6 km/h (0 Bft) W-NW 0.78 h 367 W/m 13.6 C 17.0 C
13.08.2005 10:00 18.1 C 73 % 1019.2 hPa 0.0 l/m 0.7 km/h (0 Bft) W-NW 0.72 h 477 W/m 13.3 C 18.1 C
13.08.2005 11:00 19.9 C 60 % 1019.0 hPa 0.0 l/m 2.0 km/h (1 Bft) W-NW 0.80 h 614 W/m 12.0 C 19.9 C
13.08.2005 12:00 21.2 C 51 % 1018.8 hPa 0.0 l/m 8.3 km/h (2 Bft) W-NW 0.80 h 655 W/m 10.5 C 21.2 C
13.08.2005 13:00 21.9 C 46 % 1018.7 hPa 0.0 l/m 9.1 km/h (2 Bft) W 0.77 h 610 W/m 9.8 C 21.9 C
13.08.2005 14:00 22.6 C 43 % 1018.6 hPa 0.0 l/m 15.8 km/h (3 Bft) W-NW 0.87 h 622 W/m 9.4 C 22.6 C
13.08.2005 15:00 23.0 C 37 % 1018.0 hPa 0.0 l/m 16.3 km/h (3 Bft) W-NW 0.83 h 535 W/m 7.6 C 23.0 C
13.08.2005 16:00 24.2 C 37 % 1017.4 hPa 0.0 l/m 12.0 km/h (2 Bft) W-NW 0.93 h 638 W/m 8.5 C 24.2 C
13.08.2005 17:00 24.9 C 35 % 1017.3 hPa 0.0 l/m 12.7 km/h (3 Bft) W-NW 0.90 h 490 W/m 8.5 C 24.9 C
13.08.2005 18:00 23.8 C 37 % 1017.4 hPa 0.0 l/m 14.4 km/h (3 Bft) W-NW 0.63 h 276 W/m 8.2 C 23.8 C
13.08.2005 19:00 22.5 C 41 % 1017.6 hPa 0.0 l/m 9.8 km/h (2 Bft) W-NW 0.63 h 127 W/m 8.7 C 22.5 C
13.08.2005 20:00 20.0 C 53 % 1017.9 hPa 0.0 l/m 0.5 km/h (0 Bft) W-NW 0.43 h 29 W/m 10.0 C 20.0 C
13.08.2005 21:00 18.1 C 62 % 1018.4 hPa 0.0 l/m 0.6 km/h (0 Bft) S-SO 0.00 h 0 W/m 10.8 C 18.1 C
13.08.2005 22:00 17.0 C 69 % 1019.4 hPa 0.0 l/m 0.5 km/h (0 Bft) SO 0.00 h 0 W/m 11.2 C 17.0 C
13.08.2005 23:00 15.8 C 76 % 1019.5 hPa 0.0 l/m 0.4 km/h (0 Bft) SO 0.00 h 0 W/m 11.5 C 15.8 C
14.08.2005 00:00 14.5 C 82 % 1019.3 hPa 0.0 l/m 0.0 km/h (0 Bft) N 0.00 h 0 W/m 11.4 C 14.5 C
14.08.2005 01:00 13.6 C 87 % 1018.8 hPa 0.0 l/m 0.0 km/h (0 Bft) N 0.00 h 0 W/m 11.5 C 13.6 C
14.08.2005 02:00 13.2 C 90 % 1018.6 hPa 0.0 l/m 0.1 km/h (0 Bft) N 0.00 h 0 W/m 11.6 C 13.2 C
14.08.2005 03:00 12.0 C 93 % 1017.9 hPa 0.0 l/m 0.0 km/h (0 Bft) N 0.00 h 0 W/m 11.0 C 12.0 C
14.08.2005 04:00 11.8 C 96 % 1018.0 hPa 0.0 l/m 0.0 km/h (0 Bft) N 0.00 h 0 W/m 11.2 C 11.8 C
14.08.2005 05:00 11.2 C 97 % 1017.0 hPa 0.0 l/m 0.1 km/h (0 Bft) SO 0.00 h 0 W/m 10.8 C 11.2 C
14.08.2005 06:00 11.9 C 99 % 1016.9 hPa 0.0 l/m 0.0 km/h (0 Bft) N 0.00 h 15 W/m 11.7 C 11.9 C
14.08.2005 07:00 13.0 C 88 % 1016.1 hPa 0.0 l/m 0.0 km/h (0 Bft) N 0.00 h 66 W/m 11.0 C 13.0 C
14.08.2005 08:00 14.3 C 83 % 1015.6 hPa 0.0 l/m 0.1 km/h (0 Bft) N 0.00 h 137 W/m 11.4 C 14.3 C
14.08.2005 09:00 15.9 C 77 % 1015.3 hPa 0.0 l/m 0.0 km/h (0 Bft) N 0.30 h 252 W/m 11.9 C 15.9 C
14.08.2005 10:00 18.9 C 62 % 1014.0 hPa 0.0 l/m 4.5 km/h (1 Bft) W-NW 0.40 h 387 W/m 11.3 C 18.9 C
14.08.2005 11:00 18.3 C 69 % 1014.3 hPa 0.6 l/m 16.8 km/h (3 Bft) W-NW 0.00 h 138 W/m 12.4 C 18.3 C
14.08.2005 12:00 14.7 C 93 % 1015.9 hPa 2.6 l/m 19.6 km/h (3 Bft) W-NW 0.00 h 62 W/m 13.6 C 14.7 C
14.08.2005 13:00 15.3 C 95 % 1016.5 hPa 0.6 l/m 3.6 km/h (1 Bft) W-NW 0.00 h 162 W/m 14.5 C 15.3 C
14.08.2005 14:00 15.2 C 91 % 1016.5 hPa 1.0 l/m 18.9 km/h (3 Bft) NW 0.00 h 129 W/m 13.7 C 15.2 C
14.08.2005 15:00 14.6 C 89 % 1016.5 hPa 0.6 l/m 24.1 km/h (4 Bft) W-NW 0.00 h 207 W/m 12.8 C 14.6 C
14.08.2005 16:00 16.2 C 80 % 1015.8 hPa 0.0 l/m 20.0 km/h (4 Bft) W-NW 0.78 h 525 W/m 12.6 C 16.2 C
14.08.2005 17:00 17.4 C 73 % 1015.5 hPa 0.0 l/m 13.4 km/h (3 Bft) W-NW 0.58 h 315 W/m 12.5 C 17.4 C
14.08.2005 18:00 18.1 C 64 % 1015.0 hPa 0.0 l/m 10.9 km/h (2 Bft) W-NW 0.77 h 294 W/m 11.1 C 18.1 C
14.08.2005 19:00 16.7 C 70 % 1015.4 hPa 0.3 l/m 5.1 km/h (1 Bft) W-NW 0.13 h 49 W/m 11.1 C 16.7 C
14.08.2005 20:00 13.2 C 92 % 1016.7 hPa 1.0 l/m 4.1 km/h (1 Bft) SO 0.00 h 6 W/m 12.0 C 13.2 C
14.08.2005 21:00 12.3 C 97 % 1017.7 hPa 0.0 l/m 1.0 km/h (0 Bft) O-SO 0.00 h 0 W/m 11.8 C 12.3 C
14.08.2005 22:00 12.4 C 100 % 1017.9 hPa 0.0 l/m 4.5 km/h (1 Bft) SO 0.00 h 0 W/m 12.4 C 12.4 C
14.08.2005 23:00 12.5 C 100 % 1018.9 hPa 0.0 l/m 3.9 km/h (1 Bft) SO 0.00 h 0 W/m 12.5 C 12.5 C
Min-Datum _ 09.08.05 09.08.05 10.08.05 - 08.08.05 - - - 10.08.05 09.08.05
_ Min-Zeit 06:07 17:06 17:22 - 00:00 - - - 12:52 06:07
Minimum _ 6.3 C 20 % 1010.9 hPa - 0.0 km/h (0 Bft) - - - -1.9 C 6.3 C
Max-Datum _ 12.08.05 08.08.05 14.08.05 14.08.05 14.08.05 - 09.08.05 08.08.05 14.08.05 12.08.05
_ Max-Zeit 17:26 00:20 00:35 12:01 11:51 - 12:05 12:28 13:38 17:26
Maximum _ 27.8 C 100 % 1019.7 hPa 2.6 l/m 54.1 km/h
W-NW (7 Bft)
- 0.08 h 974 W/m 15.2 C 27.8 C
Durchschnitt _ 16.4 C 69 % 1015.7 hPa #7.5 l/m 5.3 km/h (1 Bft) W-NW #72:49 h 411 W/m 9.5 C 16.4 C

Durchschnitt Minimum Temp.15.7 C
Durchschnitt Maximum Temp.17.1 C
© Kaiko 2005